N6517L KBVU-KVGT
Flight info
| Callsign | N6517L |
|---|---|
| Flight time | N/A |
| Altitude | 5500 |
| Route | BLD V105 LAS |
| Aircraft | BE55/L-SDFGRY/C |
Departure
| Time | 2026-04-12 22:16 |
|---|---|
| Airport | Boulder City Municipal Airport (KBVU) |
Arrival
| Time | N/A |
|---|---|
| Airport | North Las Vegas Airport (KVGT) |
| Time | Latitude | Longitude | Altitude | Speed | Heading |
|---|---|---|---|---|---|
| 2026-04-12 22:04 | 35.94768 | -114.85406 | 2153 ft | 0 kts | 182° |
| 2026-04-12 22:13 | 35.94763 | -114.85406 | 2144 ft | 0 kts | 164° |
| 2026-04-12 22:13 | 35.94740 | -114.85378 | 2144 ft | 10 kts | 101° |
| 2026-04-12 22:13 | 35.94726 | -114.85285 | 2145 ft | 11 kts | 124° |
| 2026-04-12 22:13 | 35.94665 | -114.85283 | 2144 ft | 9 kts | 191° |
| 2026-04-12 22:14 | 35.94621 | -114.85288 | 2145 ft | 5 kts | 168° |
| 2026-04-12 22:14 | 35.94599 | -114.85246 | 2145 ft | 8 kts | 97° |
| 2026-04-12 22:14 | 35.94565 | -114.85191 | 2145 ft | 8 kts | 187° |
| 2026-04-12 22:14 | 35.94541 | -114.85197 | 2145 ft | 0 kts | 189° |
| 2026-04-12 22:15 | 35.94518 | -114.85204 | 2145 ft | 5 kts | 213° |
| 2026-04-12 22:15 | 35.94513 | -114.85250 | 2145 ft | 9 kts | 283° |
| 2026-04-12 22:15 | 35.94518 | -114.85281 | 2144 ft | 0 kts | 280° |
| 2026-04-12 22:15 | 35.94528 | -114.85372 | 2144 ft | 44 kts | 272° |
| 2026-04-12 22:16 | 35.94634 | -114.86010 | 2211 ft | 97 kts | 277° |
| 2026-04-12 22:16 | 35.94984 | -114.86827 | 2496 ft | 124 kts | 306° |
| 2026-04-12 22:16 | 35.95802 | -114.87354 | 2797 ft | 142 kts | 327° |
| 2026-04-12 22:16 | 35.96591 | -114.88051 | 3091 ft | 142 kts | 305° |
| 2026-04-12 22:17 | 35.97307 | -114.88903 | 3377 ft | 142 kts | 304° |
| 2026-04-12 22:17 | 35.98038 | -114.89702 | 3650 ft | 140 kts | 303° |
| 2026-04-12 22:17 | 35.98768 | -114.90464 | 3975 ft | 145 kts | 324° |
| 2026-04-12 22:17 | 35.99806 | -114.90361 | 4270 ft | 163 kts | 22° |
| 2026-04-12 22:18 | 36.00821 | -114.90150 | 4568 ft | 140 kts | 326° |
| 2026-04-12 22:18 | 36.01313 | -114.90944 | 4868 ft | 109 kts | 261° |
| 2026-04-12 22:18 | 36.01270 | -114.91858 | 5157 ft | 109 kts | 273° |
| 2026-04-12 22:18 | 36.01462 | -114.92733 | 5439 ft | 102 kts | 274° |
| 2026-04-12 22:19 | 36.01661 | -114.93547 | 5714 ft | 95 kts | 275° |
| 2026-04-12 22:19 | 36.01860 | -114.94305 | 5921 ft | 91 kts | 275° |
| 2026-04-12 22:19 | 36.02060 | -114.95035 | 6105 ft | 87 kts | 272° |
| 2026-04-12 22:19 | 36.02254 | -114.95737 | 6244 ft | 87 kts | 272° |
| 2026-04-12 22:20 | 36.02451 | -114.96443 | 6347 ft | 85 kts | 274° |
| 2026-04-12 22:20 | 36.02641 | -114.97123 | 6442 ft | 84 kts | 272° |
| 2026-04-12 22:20 | 36.02833 | -114.97800 | 6558 ft | 82 kts | 272° |
| 2026-04-12 22:20 | 36.03029 | -114.98505 | 6557 ft | 92 kts | 274° |
| 2026-04-12 22:21 | 36.03246 | -114.99280 | 6617 ft | 99 kts | 274° |
| 2026-04-12 22:21 | 36.03480 | -115.00106 | 6612 ft | 105 kts | 277° |
| 2026-04-12 22:21 | 36.03716 | -115.00926 | 6719 ft | 98 kts | 277° |
| 2026-04-12 22:21 | 36.03934 | -115.01686 | 6851 ft | 90 kts | 275° |
| 2026-04-12 22:22 | 36.04140 | -115.02406 | 6962 ft | 84 kts | 276° |
| 2026-04-12 22:22 | 36.04324 | -115.03050 | 7064 ft | 78 kts | 275° |
| 2026-04-12 22:22 | 36.04501 | -115.03690 | 7089 ft | 81 kts | 275° |
| 2026-04-12 22:22 | 36.04695 | -115.04403 | 7124 ft | 100 kts | 277° |
| 2026-04-12 22:23 | 36.04946 | -115.05305 | 7205 ft | 118 kts | 278° |
| 2026-04-12 22:23 | 36.05223 | -115.06272 | 7355 ft | 123 kts | 277° |
| 2026-04-12 22:23 | 36.05516 | -115.07295 | 7506 ft | 129 kts | 278° |
| 2026-04-12 22:23 | 36.05816 | -115.08357 | 7656 ft | 133 kts | 279° |
| 2026-04-12 22:24 | 36.06124 | -115.09440 | 7798 ft | 134 kts | 278° |
| 2026-04-12 22:24 | 36.06432 | -115.10529 | 7943 ft | 133 kts | 277° |
| 2026-04-12 22:24 | 36.06730 | -115.11570 | 8200 ft | 124 kts | 277° |
| 2026-04-12 22:24 | 36.07005 | -115.12537 | 8452 ft | 115 kts | 276° |
| 2026-04-12 22:25 | 36.07259 | -115.13435 | 8701 ft | 106 kts | 274° |
| 2026-04-12 22:25 | 36.07493 | -115.14262 | 8942 ft | 97 kts | 274° |
| 2026-04-12 22:25 | 36.07709 | -115.15041 | 9098 ft | 96 kts | 272° |
| 2026-04-12 22:25 | 36.08012 | -115.15806 | 9213 ft | 109 kts | 303° |
| 2026-04-12 22:26 | 36.08802 | -115.15994 | 9339 ft | 127 kts | 2° |
| 2026-04-12 22:26 | 36.09689 | -115.15838 | 9430 ft | 130 kts | 0° |
| 2026-04-12 22:26 | 36.10593 | -115.15653 | 9497 ft | 135 kts | 2° |
| 2026-04-12 22:26 | 36.11555 | -115.15480 | 9502 ft | 144 kts | 1° |
| 2026-04-12 22:27 | 36.12557 | -115.15322 | 9514 ft | 150 kts | 2° |
| 2026-04-12 22:27 | 36.13625 | -115.15143 | 9522 ft | 160 kts | 1° |
| 2026-04-12 22:27 | 36.14744 | -115.14958 | 9516 ft | 164 kts | 1° |
| 2026-04-12 22:27 | 36.15883 | -115.14773 | 9488 ft | 166 kts | 0° |
| 2026-04-12 22:28 | 36.17038 | -115.14571 | 9486 ft | 169 kts | 1° |
| 2026-04-12 22:28 | 36.18198 | -115.14376 | 9487 ft | 168 kts | 1° |
| 2026-04-12 22:28 | 36.19335 | -115.14188 | 9485 ft | 168 kts | 360° |
| 2026-04-12 22:28 | 36.20498 | -115.13969 | 9485 ft | 165 kts | 0° |
| 2026-04-12 22:29 | 36.21639 | -115.13771 | 9484 ft | 166 kts | 1° |
| 2026-04-12 22:29 | 36.22783 | -115.13580 | 9484 ft | 166 kts | 1° |
| 2026-04-12 22:29 | 36.23928 | -115.13374 | 9485 ft | 166 kts | 1° |
| 2026-04-12 22:29 | 36.25078 | -115.13174 | 9484 ft | 167 kts | 0° |
| 2026-04-12 22:30 | 36.26229 | -115.12975 | 9485 ft | 167 kts | 1° |
| 2026-04-12 22:30 | 36.27378 | -115.12771 | 9486 ft | 166 kts | 1° |
| 2026-04-12 22:30 | 36.28526 | -115.12571 | 9446 ft | 167 kts | 1° |
| 2026-04-12 22:30 | 36.29680 | -115.12365 | 9447 ft | 168 kts | 1° |
| 2026-04-12 22:31 | 36.30839 | -115.12152 | 9446 ft | 168 kts | 1° |
| 2026-04-12 22:31 | 36.32000 | -115.11954 | 9453 ft | 167 kts | 1° |
| 2026-04-12 22:31 | 36.33140 | -115.11755 | 9452 ft | 168 kts | 0° |
| 2026-04-12 22:31 | 36.34300 | -115.11549 | 9453 ft | 168 kts | 1° |
| 2026-04-12 22:32 | 36.35462 | -115.11350 | 9458 ft | 169 kts | 0° |
| 2026-04-12 22:32 | 36.36622 | -115.11159 | 9447 ft | 168 kts | 360° |
| 2026-04-12 22:32 | 36.37761 | -115.10941 | 9455 ft | 166 kts | 0° |
| 2026-04-12 22:32 | 36.38909 | -115.10708 | 9447 ft | 168 kts | 359° |
| 2026-04-12 22:33 | 36.40066 | -115.10437 | 9444 ft | 169 kts | 359° |
| 2026-04-12 22:33 | 36.41226 | -115.10190 | 9441 ft | 169 kts | 0° |
| 2026-04-12 22:33 | 36.42384 | -115.09944 | 9428 ft | 167 kts | 360° |
| 2026-04-12 22:33 | 36.43526 | -115.09671 | 9435 ft | 167 kts | 2° |
| 2026-04-12 22:34 | 36.44665 | -115.09547 | 9419 ft | 154 kts | 333° |
| 2026-04-12 22:34 | 36.45340 | -115.10231 | 9431 ft | 109 kts | 274° |
| 2026-04-12 22:34 | 36.45591 | -115.11105 | 9435 ft | 112 kts | 271° |
| 2026-04-12 22:34 | 36.45807 | -115.12055 | 9432 ft | 116 kts | 271° |
| 2026-04-12 22:35 | 36.46011 | -115.13049 | 9434 ft | 121 kts | 270° |
| 2026-04-12 22:35 | 36.46152 | -115.14039 | 9431 ft | 111 kts | 254° |
| 2026-04-12 22:35 | 36.46039 | -115.14965 | 9433 ft | 107 kts | 251° |
| 2026-04-12 22:35 | 36.45921 | -115.15875 | 9433 ft | 109 kts | 251° |
| 2026-04-12 22:36 | 36.45792 | -115.16814 | 9435 ft | 113 kts | 251° |
| 2026-04-12 22:36 | 36.45640 | -115.17796 | 9439 ft | 117 kts | 251° |
| 2026-04-12 22:36 | 36.45476 | -115.18792 | 9443 ft | 118 kts | 250° |
| 2026-04-12 22:36 | 36.45336 | -115.19764 | 9445 ft | 111 kts | 250° |
| 2026-04-12 22:37 | 36.45207 | -115.20697 | 9450 ft | 109 kts | 251° |
| 2026-04-12 22:37 | 36.45082 | -115.21626 | 9451 ft | 109 kts | 251° |
| 2026-04-12 22:37 | 36.44956 | -115.22556 | 9451 ft | 109 kts | 251° |
| 2026-04-12 22:37 | 36.44825 | -115.23472 | 9451 ft | 109 kts | 250° |
| 2026-04-12 22:38 | 36.44695 | -115.24403 | 9452 ft | 110 kts | 251° |
| 2026-04-12 22:38 | 36.44571 | -115.25340 | 9451 ft | 109 kts | 251° |
| 2026-04-12 22:38 | 36.44448 | -115.26228 | 9446 ft | 102 kts | 251° |
| 2026-04-12 22:38 | 36.44311 | -115.27110 | 9447 ft | 106 kts | 251° |
| 2026-04-12 22:39 | 36.44167 | -115.28033 | 9445 ft | 110 kts | 249° |
| 2026-04-12 22:39 | 36.44029 | -115.28973 | 9442 ft | 111 kts | 251° |
| 2026-04-12 22:39 | 36.43875 | -115.29920 | 9442 ft | 113 kts | 251° |
| 2026-04-12 22:40 | 36.43583 | -115.31830 | 9409 ft | 111 kts | 250° |
| 2026-04-12 22:40 | 36.43447 | -115.32773 | 9414 ft | 110 kts | 251° |
| 2026-04-12 22:40 | 36.43302 | -115.33714 | 9413 ft | 112 kts | 251° |
| 2026-04-12 22:40 | 36.43125 | -115.34674 | 9412 ft | 115 kts | 251° |
| 2026-04-12 22:41 | 36.42943 | -115.35653 | 9414 ft | 118 kts | 251° |
| 2026-04-12 22:41 | 36.42756 | -115.36649 | 9414 ft | 119 kts | 251° |
| 2026-04-12 22:41 | 36.42569 | -115.37646 | 9414 ft | 118 kts | 251° |
| 2026-04-12 22:41 | 36.42213 | -115.38481 | 9422 ft | 112 kts | 211° |
| 2026-04-12 22:42 | 36.41414 | -115.38376 | 9415 ft | 130 kts | 163° |
| 2026-04-12 22:42 | 36.40622 | -115.37810 | 9415 ft | 132 kts | 161° |
| 2026-04-12 22:42 | 36.39828 | -115.37229 | 9441 ft | 133 kts | 160° |
| 2026-04-12 22:42 | 36.39028 | -115.36644 | 9443 ft | 134 kts | 161° |
| 2026-04-12 22:43 | 36.38230 | -115.36046 | 9439 ft | 134 kts | 161° |
| 2026-04-12 22:43 | 36.37434 | -115.35444 | 9439 ft | 134 kts | 161° |
| 2026-04-12 22:43 | 36.36807 | -115.34537 | 9438 ft | 157 kts | 113° |
| 2026-04-12 22:43 | 36.37047 | -115.33173 | 9440 ft | 173 kts | 52° |
| 2026-04-12 22:44 | 36.38047 | -115.32420 | 9428 ft | 169 kts | 12° |
| 2026-04-12 22:44 | 36.39167 | -115.31945 | 9427 ft | 172 kts | 10° |
| 2026-04-12 22:44 | 36.40303 | -115.31469 | 9429 ft | 172 kts | 12° |
| 2026-04-12 22:44 | 36.41444 | -115.31009 | 9465 ft | 173 kts | 11° |
| 2026-04-12 22:45 | 36.42601 | -115.30587 | 9448 ft | 168 kts | 353° |
| 2026-04-12 22:45 | 36.43534 | -115.31049 | 9454 ft | 131 kts | 290° |
| 2026-04-12 22:45 | 36.43949 | -115.31999 | 9416 ft | 124 kts | 282° |
| 2026-04-12 22:45 | 36.44307 | -115.32978 | 9425 ft | 126 kts | 281° |
| 2026-04-12 22:46 | 36.44657 | -115.33974 | 9416 ft | 126 kts | 281° |
| 2026-04-12 22:46 | 36.44983 | -115.34991 | 9417 ft | 127 kts | 281° |
| 2026-04-12 22:46 | 36.45310 | -115.36016 | 9418 ft | 128 kts | 281° |
| 2026-04-12 22:46 | 36.45638 | -115.37047 | 9417 ft | 129 kts | 281° |
| 2026-04-12 22:47 | 36.45970 | -115.38112 | 9160 ft | 131 kts | 281° |
| 2026-04-12 22:47 | 36.46284 | -115.39098 | 8762 ft | 120 kts | 281° |
| 2026-04-12 22:47 | 36.46483 | -115.40040 | 8410 ft | 104 kts | 250° |
| 2026-04-12 22:47 | 36.45968 | -115.40500 | 8052 ft | 105 kts | 181° |
| 2026-04-12 22:48 | 36.45291 | -115.40036 | 7682 ft | 116 kts | 155° |
| 2026-04-12 22:48 | 36.44614 | -115.39460 | 7308 ft | 120 kts | 155° |
| 2026-04-12 22:48 | 36.43900 | -115.38875 | 6933 ft | 125 kts | 156° |
| 2026-04-12 22:48 | 36.43147 | -115.38293 | 6916 ft | 126 kts | 160° |
| 2026-04-12 22:49 | 36.42337 | -115.37957 | 6915 ft | 122 kts | 171° |
| 2026-04-12 22:49 | 36.41527 | -115.37675 | 6917 ft | 121 kts | 172° |
| 2026-04-12 22:49 | 36.40725 | -115.37381 | 6918 ft | 120 kts | 171° |
| 2026-04-12 22:49 | 36.39921 | -115.37082 | 6936 ft | 121 kts | 171° |
| 2026-04-12 22:50 | 36.39107 | -115.36838 | 6938 ft | 120 kts | 178° |
| 2026-04-12 22:50 | 36.38284 | -115.36736 | 6938 ft | 119 kts | 181° |
| 2026-04-12 22:50 | 36.37461 | -115.36658 | 6938 ft | 118 kts | 181° |
| 2026-04-12 22:50 | 36.36662 | -115.36593 | 6935 ft | 115 kts | 182° |
| 2026-04-12 22:51 | 36.35899 | -115.36518 | 6930 ft | 105 kts | 175° |
| 2026-04-12 22:51 | 36.35259 | -115.36144 | 6916 ft | 94 kts | 166° |
| 2026-04-12 22:51 | 36.34711 | -115.35815 | 6920 ft | 84 kts | 166° |
| 2026-04-12 22:51 | 36.34195 | -115.35505 | 6918 ft | 81 kts | 166° |
| 2026-04-12 22:52 | 36.33714 | -115.35179 | 6916 ft | 81 kts | 135° |
| 2026-04-12 22:52 | 36.33598 | -115.34824 | 4144 ft | 23 kts | 323° |